Wind From: 10-12-2017 19:04 Until: 11-12-2017 16:00 warning for: Wind Level: Orange info button

Power and phone distribution networks may be disrupted for relatively long periods., Roofs and chimneys can be damaged. , Tree branches may break. , Vehicles can be deported. , Traffic may be disrupted, particularly on secondary roads in forest areas. Limit your trips. , Limit your speed in highway driving, especially if you drive a vehicle or hitch sensitive to wind. , Do not go for walks in forests or along the coast., In town, be vigilant against possible falling objects., Do not work on roofs and do not touch any electrical line fallen on the ground., Store or secure sensitive objects to wind or likely to be damaged., Always install power generators outside buildings. 


Meteo18 Weather Cam more information Meteo18 Weather Cam


Thunder radar more information blitzortung!


Rain radar more information rain snow radar


Visit our other weather sites:

Template documentation
and downloads

And another site



Weather Underground History page Text

Daily Summary for April 25, 2016 Units:  Metric    English   Both
« Previous Day
Next Day »
Daily Weekly Monthly Yearly Custom
  High: Low: Average:
Temperature: 10.7 °C -0.2 °C 6 °C
Dew Point: 5.0 °C -1.1 °C 2.5 °C
Humidity: 96 % 62 % 79 %
Wind Speed: 14.5 km/h 0.0 km/h 2.2 km/h
Wind Gust: 19.3 km/h - -
Wind:- - SW
Pressure: 1019.2 hPa 1010.4 hPa -
Precipitation: 0.3 mm    
Historical Graphs
 
 
Tabular Data for April 25, 2016
Time Temperature Dew Point Pressure Wind Wind Speed Wind Gust Humidity Rainfall Rate (Hourly)
00:02 4.1 °C 2.5 °C 1018.8 hPa Calm   3.2 km/h 89 % 0.0 mm
00:07 4.1 °C 2.5 °C 1018.8 hPa Calm   1.6 km/h 89 % 0.0 mm
00:12 4.1 °C 2.5 °C 1018.8 hPa Calm   1.6 km/h 89 % 0.0 mm
00:17 4.1 °C 2.6 °C 1019.2 hPa Calm   1.6 km/h 90 % 0.0 mm
00:22 4.2 °C 2.7 °C 1019.2 hPa Calm     90 % 0.0 mm
00:27 4.1 °C 2.6 °C 1019.2 hPa Calm     90 % 0.0 mm
00:32 4.2 °C 2.7 °C 1019.2 hPa Calm   1.6 km/h 90 % 0.0 mm
00:37 4.2 °C 2.9 °C 1019.2 hPa Calm   1.6 km/h 91 % 0.0 mm
00:42 4.3 °C 3.0 °C 1019.2 hPa Calm   1.6 km/h 91 % 0.0 mm
00:47 4.4 °C 3.1 °C 1019.2 hPa Calm   3.2 km/h 91 % 0.0 mm
00:52 4.5 °C 3.0 °C 1019.2 hPa Calm   3.2 km/h 90 % 0.0 mm
00:57 4.5 °C 3.0 °C 1019.2 hPa NE 1.6 km/h 3.2 km/h 90 % 0.0 mm
01:02 4.6 °C 3.1 °C 1019.2 hPa Calm   3.2 km/h 90 % 0.0 mm
01:07 4.5 °C 3.0 °C 1019.2 hPa Calm   3.2 km/h 90 % 0.0 mm
01:12 4.5 °C 3.0 °C 1019.2 hPa Calm   3.2 km/h 90 % 0.0 mm
01:17 4.4 °C 2.9 °C 1019.2 hPa NE 3.2 km/h 3.2 km/h 90 % 0.0 mm
01:22 4.4 °C 2.9 °C 1019.2 hPa Calm   3.2 km/h 90 % 0.0 mm
01:32 4.3 °C 2.6 °C 1019.2 hPa Calm   3.2 km/h 89 % 0.0 mm
01:37 4.2 °C 2.7 °C 1019.2 hPa Calm   3.2 km/h 90 % 0.0 mm
01:42 4.2 °C 2.5 °C 1019.2 hPa Calm   3.2 km/h 89 % 0.0 mm
01:47 4.1 °C 2.5 °C 1019.2 hPa Calm   3.2 km/h 89 % 0.0 mm
01:52 4.1 °C 2.6 °C 1019.2 hPa Calm   3.2 km/h 90 % 0.0 mm
01:57 3.9 °C 2.4 °C 1019.2 hPa Calm   3.2 km/h 90 % 0.0 mm
02:02 3.8 °C 2.3 °C 1019.2 hPa Calm   3.2 km/h 90 % 0.0 mm
02:12 3.6 °C 2.1 °C 1019.2 hPa Calm   3.2 km/h 90 % 0.0 mm
02:17 3.4 °C 1.9 °C 1019.2 hPa Calm   3.2 km/h 90 % 0.0 mm
02:22 3.3 °C 1.8 °C 1019.2 hPa Calm   3.2 km/h 90 % 0.0 mm
02:32 3.1 °C 1.8 °C 1019.2 hPa Calm   1.6 km/h 91 % 0.0 mm
02:37 2.9 °C 1.6 °C 1019.2 hPa Calm   1.6 km/h 91 % 0.0 mm
02:42 2.8 °C 1.5 °C 1019.2 hPa Calm   1.6 km/h 91 % 0.0 mm
02:47 2.7 °C 1.5 °C 1019.2 hPa Calm     92 % 0.0 mm
02:52 2.6 °C 1.4 °C 1018.8 hPa Calm     92 % 0.0 mm
02:57 2.4 °C 1.2 °C 1018.8 hPa Calm     92 % 0.0 mm
03:02 2.4 °C 1.4 °C 1018.8 hPa Calm     93 % 0.0 mm
03:07 2.3 °C 1.3 °C 1018.8 hPa Calm     93 % 0.0 mm
03:12 2.2 °C 1.2 °C 1018.8 hPa Calm     93 % 0.0 mm
03:17 2.2 °C 1.2 °C 1018.8 hPa ENE 1.6 km/h   93 % 0.0 mm
03:22 2.2 °C 1.2 °C 1018.8 hPa Calm     93 % 0.0 mm
03:27 2.2 °C 1.2 °C 1018.8 hPa Calm   4.8 km/h 93 % 0.0 mm
03:32 2.2 °C 1.2 °C 1018.8 hPa ENE 1.6 km/h 4.8 km/h 93 % 0.0 mm
03:37 2.2 °C 1.2 °C 1018.8 hPa NE 4.8 km/h 4.8 km/h 93 % 0.0 mm
03:42 2.2 °C 1.2 °C 1018.8 hPa Calm   3.2 km/h 93 % 0.0 mm
03:47 2.2 °C 1.2 °C 1018.8 hPa Calm   4.8 km/h 93 % 0.0 mm
03:52 2.1 °C 1.1 °C 1018.8 hPa Calm   4.8 km/h 93 % 0.0 mm
03:57 2.1 °C 1.1 °C 1018.8 hPa Calm   3.2 km/h 93 % 0.0 mm
04:02 2.0 °C 1.0 °C 1018.8 hPa Calm   3.2 km/h 93 % 0.0 mm
04:07 1.9 °C 0.9 °C 1018.8 hPa NE 1.6 km/h 3.2 km/h 93 % 0.0 mm
04:12 1.8 °C 0.8 °C 1018.8 hPa Calm   3.2 km/h 93 % 0.0 mm
04:17 1.7 °C 0.7 °C 1018.8 hPa Calm   3.2 km/h 93 % 0.0 mm
04:22 1.7 °C 0.7 °C 1018.8 hPa Calm   3.2 km/h 93 % 0.0 mm
04:27 1.7 °C 0.7 °C 1018.8 hPa Calm   1.6 km/h 93 % 0.0 mm
04:32 1.6 °C 0.6 °C 1018.8 hPa NE 3.2 km/h 3.2 km/h 93 % 0.0 mm
04:37 1.6 °C 0.6 °C 1018.8 hPa Calm   3.2 km/h 93 % 0.0 mm
04:42 1.4 °C 0.4 °C 1018.8 hPa Calm   3.2 km/h 93 % 0.0 mm
04:47 1.4 °C 0.4 °C 1018.8 hPa Calm   3.2 km/h 93 % 0.0 mm
04:52 1.4 °C 0.4 °C 1018.8 hPa Calm   3.2 km/h 93 % 0.0 mm
04:57 1.4 °C 0.4 °C 1018.8 hPa ENE 1.6 km/h 1.6 km/h 93 % 0.0 mm
05:02 1.4 °C 0.4 °C 1018.8 hPa Calm   1.6 km/h 93 % 0.0 mm
05:12 1.3 °C 0.3 °C 1018.8 hPa Calm   4.8 km/h 93 % 0.0 mm
05:17 1.3 °C 0.3 °C 1018.8 hPa Calm   3.2 km/h 93 % 0.0 mm
05:22 1.3 °C 0.3 °C 1018.8 hPa Calm   3.2 km/h 93 % 0.0 mm
05:32 1.2 °C 0.2 °C 1018.8 hPa Calm   4.8 km/h 93 % 0.0 mm
05:37 1.2 °C 0.2 °C 1018.8 hPa Calm   3.2 km/h 93 % 0.0 mm
05:42 1.2 °C 0.2 °C 1018.5 hPa Calm   3.2 km/h 93 % 0.0 mm
05:47 1.1 °C 0.1 °C 1018.5 hPa Calm   1.6 km/h 93 % 0.0 mm
05:52 1.1 °C 0.1 °C 1018.5 hPa Calm   1.6 km/h 93 % 0.0 mm
05:57 1.0 °C 0.0 °C 1018.5 hPa Calm   1.6 km/h 93 % 0.0 mm
06:02 0.8 °C -0.2 °C 1018.5 hPa Calm   1.6 km/h 93 % 0.0 mm
06:12 0.3 °C -0.8 °C 1018.5 hPa Calm     92 % 0.0 mm
06:17 0.2 °C -0.8 °C 1018.5 hPa Calm     93 % 0.0 mm
06:22 0.1 °C -0.9 °C 1018.5 hPa Calm     93 % 0.0 mm
06:27 0.0 °C -1.0 °C 1018.5 hPa Calm     93 % 0.0 mm
06:32 -0.1 °C -1.1 °C 1018.5 hPa Calm     93 % 0.0 mm
06:42 -0.1 °C -0.9 °C 1018.5 hPa Calm     94 % 0.0 mm
06:47 -0.1 °C -0.9 °C 1018.5 hPa Calm     94 % 0.0 mm
06:52 -0.1 °C -0.9 °C 1018.5 hPa Calm     94 % 0.0 mm
06:57 -0.2 °C -1.0 °C 1018.5 hPa Calm     94 % 0.0 mm
07:02 -0.1 °C -0.8 °C 1018.5 hPa Calm     95 % 0.0 mm
07:12 0.4 °C -0.2 °C 1018.5 hPa Calm     96 % 0.0 mm
07:17 0.5 °C -0.2 °C 1018.5 hPa Calm     95 % 0.0 mm
07:22 0.7 °C 0.0 °C 1018.5 hPa Calm     95 % 0.0 mm
07:32 0.9 °C 0.2 °C 1018.5 hPa Calm     95 % 0.0 mm
07:42 1.1 °C 0.4 °C 1018.5 hPa Calm   1.6 km/h 95 % 0.0 mm
07:47 1.3 °C 0.7 °C 1018.5 hPa WSW 1.6 km/h 1.6 km/h 96 % 0.0 mm
07:52 1.5 °C 0.8 °C 1018.5 hPa Calm   1.6 km/h 95 % 0.0 mm
08:02 1.7 °C 1.0 °C 1018.5 hPa Calm   1.6 km/h 95 % 0.0 mm
08:12 1.9 °C 1.2 °C 1018.5 hPa Calm     95 % 0.0 mm
08:22 2.3 °C 1.6 °C 1018.5 hPa Calm     95 % 0.0 mm
08:32 2.4 °C 1.5 °C 1018.5 hPa Calm     94 % 0.0 mm
08:42 2.7 °C 1.8 °C 1018.2 hPa WSW 1.6 km/h   94 % 0.0 mm
08:52 2.7 °C 1.7 °C 1018.2 hPa Calm   1.6 km/h 93 % 0.0 mm
08:57 2.8 °C 1.8 °C 1018.2 hPa Calm   4.8 km/h 93 % 0.0 mm
09:02 2.8 °C 1.8 °C 1018.2 hPa WSW 4.8 km/h 4.8 km/h 93 % 0.0 mm
09:12 2.9 °C 1.9 °C 1018.2 hPa WSW 1.6 km/h 4.8 km/h 93 % 0.0 mm
09:17 3.0 °C 2.0 °C 1017.8 hPa Calm   4.8 km/h 93 % 0.0 mm
09:22 3.2 °C 2.2 °C 1017.8 hPa WSW 1.6 km/h 4.8 km/h 93 % 0.0 mm
09:32 3.3 °C 2.0 °C 1017.8 hPa SW 3.2 km/h 4.8 km/h 91 % 0.0 mm
09:42 3.6 °C 2.3 °C 1017.8 hPa SW 3.2 km/h 6.4 km/h 91 % 0.0 mm
09:47 3.6 °C 2.3 °C 1017.8 hPa SW 4.8 km/h 6.4 km/h 91 % 0.0 mm
09:52 3.6 °C 2.1 °C 1017.8 hPa Calm   6.4 km/h 90 % 0.0 mm
09:57 3.7 °C 2.2 °C 1017.8 hPa Calm   6.4 km/h 90 % 0.0 mm
10:02 3.8 °C 2.5 °C 1017.8 hPa West 3.2 km/h 6.4 km/h 91 % 0.0 mm
10:07 3.8 °C 2.5 °C 1017.8 hPa Calm   4.8 km/h 91 % 0.0 mm
10:12 3.9 °C 2.6 °C 1017.8 hPa WSW 3.2 km/h 4.8 km/h 91 % 0.0 mm
10:17 3.9 °C 2.6 °C 1017.8 hPa SW 6.4 km/h 6.4 km/h 91 % 0.0 mm
10:22 3.9 °C 2.4 °C 1017.8 hPa WSW 1.6 km/h 6.4 km/h 90 % 0.0 mm
10:32 4.0 °C 2.4 °C 1017.8 hPa WSW 3.2 km/h 6.4 km/h 89 % 0.0 mm
10:37 4.1 °C 2.5 °C 1017.8 hPa SW 3.2 km/h 4.8 km/h 89 % 0.0 mm
10:47 4.2 °C 2.4 °C 1017.8 hPa SW 1.6 km/h 6.4 km/h 88 % 0.3 mm
10:52 4.4 °C 2.9 °C 1017.8 hPa West 4.8 km/h 6.4 km/h 90 % 0.3 mm
10:57 4.5 °C 2.8 °C 1017.8 hPa Calm   8.0 km/h 89 % 0.3 mm
11:02 4.6 °C 2.6 °C 1017.5 hPa SW 6.4 km/h 8.0 km/h 87 % 0.3 mm
11:07 4.8 °C 2.8 °C 1017.5 hPa SW 3.2 km/h 11.3 km/h 87 % 0.3 mm
11:12 5.0 °C 3.0 °C 1017.5 hPa WSW 1.6 km/h 11.3 km/h 87 % 0.3 mm
11:17 5.2 °C 2.9 °C 1017.5 hPa WSW 6.4 km/h 9.7 km/h 85 % 0.3 mm
11:22 5.6 °C 3.6 °C 1017.5 hPa SW 3.2 km/h 9.7 km/h 87 % 0.3 mm
11:27 5.9 °C 3.4 °C 1017.5 hPa SW 1.6 km/h 9.7 km/h 84 % 0.3 mm
11:32 5.9 °C 3.4 °C 1017.5 hPa WSW 3.2 km/h 9.7 km/h 84 % 0.3 mm
11:37 5.9 °C 3.2 °C 1017.2 hPa WSW 3.2 km/h 12.9 km/h 83 % 0.0 mm
11:42 6.0 °C 3.5 °C 1017.2 hPa Calm   12.9 km/h 84 % 0.0 mm
11:47 6.2 °C 3.5 °C 1017.2 hPa SW 3.2 km/h 12.9 km/h 83 % 0.0 mm
11:52 6.6 °C 3.7 °C 1017.2 hPa Calm   12.9 km/h 82 % 0.0 mm
11:57 6.9 °C 3.1 °C 1017.2 hPa WSW 6.4 km/h 11.3 km/h 77 % 0.0 mm
12:02 7.0 °C 3.2 °C 1017.2 hPa WSW 3.2 km/h 11.3 km/h 77 % 0.0 mm
12:07 7.0 °C 2.5 °C 1017.2 hPa Calm   12.9 km/h 73 % 0.0 mm
12:12 7.2 °C 2.5 °C 1017.2 hPa SW 3.2 km/h 12.9 km/h 72 % 0.0 mm
12:17 7.3 °C 2.4 °C 1017.2 hPa WSW 6.4 km/h 12.9 km/h 71 % 0.0 mm
12:22 7.5 °C 2.8 °C 1016.8 hPa SW 8.0 km/h 12.9 km/h 72 % 0.0 mm
12:27 7.6 °C 2.7 °C 1016.8 hPa WSW 3.2 km/h 12.9 km/h 71 % 0.0 mm
12:32 7.7 °C 3.0 °C 1016.8 hPa SW 3.2 km/h 16.1 km/h 72 % 0.0 mm
12:37 7.7 °C 3.0 °C 1016.8 hPa WSW 4.8 km/h 16.1 km/h 72 % 0.0 mm
12:42 7.5 °C 3.0 °C 1016.8 hPa WSW 3.2 km/h 16.1 km/h 73 % 0.0 mm
12:47 7.3 °C 2.8 °C 1016.5 hPa SW 8.0 km/h 12.9 km/h 73 % 0.0 mm
12:52 7.1 °C 2.8 °C 1016.5 hPa WSW 6.4 km/h 12.9 km/h 74 % 0.0 mm
12:57 6.9 °C 2.6 °C 1016.5 hPa SW 3.2 km/h 11.3 km/h 74 % 0.0 mm
13:02 7.4 °C 3.3 °C 1016.1 hPa SW 3.2 km/h 11.3 km/h 75 % 0.0 mm
13:07 8.1 °C 3.4 °C 1016.1 hPa SW 1.6 km/h 12.9 km/h 72 % 0.0 mm
13:12 9.0 °C 4.4 °C 1016.1 hPa WSW 6.4 km/h 12.9 km/h 73 % 0.0 mm
13:17 9.4 °C 3.8 °C 1016.1 hPa SW 6.4 km/h 14.5 km/h 68 % 0.0 mm
13:22 9.8 °C 4.4 °C 1016.1 hPa SW 6.4 km/h 14.5 km/h 69 % 0.0 mm
13:27 9.8 °C 4.0 °C 1015.8 hPa SSW 4.8 km/h 14.5 km/h 67 % 0.0 mm
13:32 9.7 °C 4.3 °C 1015.8 hPa WSW 6.4 km/h 14.5 km/h 69 % 0.0 mm
13:37 9.9 °C 4.5 °C 1015.8 hPa Calm   12.9 km/h 69 % 0.0 mm
13:47 10.0 °C 4.6 °C 1015.8 hPa SW 4.8 km/h 12.9 km/h 69 % 0.0 mm
13:52 10.7 °C 5.0 °C 1015.5 hPa SW 8.0 km/h 12.9 km/h 68 % 0.0 mm
13:57 10.2 °C 4.6 °C 1015.5 hPa SW 9.7 km/h 16.1 km/h 68 % 0.0 mm
14:02 9.7 °C 4.3 °C 1015.5 hPa SW 4.8 km/h 16.1 km/h 69 % 0.0 mm
14:07 9.7 °C 4.5 °C 1015.5 hPa WSW 3.2 km/h 14.5 km/h 70 % 0.0 mm
14:12 9.7 °C 4.7 °C 1015.5 hPa WSW 3.2 km/h 14.5 km/h 71 % 0.0 mm
14:17 9.7 °C 3.9 °C 1015.5 hPa SW 4.8 km/h 12.9 km/h 67 % 0.0 mm
14:22 9.6 °C 4.0 °C 1015.1 hPa SW 6.4 km/h 12.9 km/h 68 % 0.0 mm
14:27 9.6 °C 4.0 °C 1015.1 hPa SSW 3.2 km/h 11.3 km/h 68 % 0.0 mm
14:32 9.4 °C 3.8 °C 1015.1 hPa SW 3.2 km/h 11.3 km/h 68 % 0.0 mm
14:37 9.5 °C 4.3 °C 1015.1 hPa WNW 3.2 km/h 9.7 km/h 70 % 0.0 mm
14:42 9.6 °C 4.2 °C 1015.1 hPa SW 1.6 km/h 9.7 km/h 69 % 0.0 mm
14:52 9.6 °C 4.2 °C 1015.1 hPa SW 4.8 km/h 8.0 km/h 69 % 0.0 mm
14:57 9.7 °C 4.5 °C 1014.8 hPa WSW 1.6 km/h 11.3 km/h 70 % 0.0 mm
15:02 9.7 °C 4.1 °C 1014.8 hPa SSW 3.2 km/h 11.3 km/h 68 % 0.0 mm
15:07 9.8 °C 4.0 °C 1014.8 hPa WSW 4.8 km/h 14.5 km/h 67 % 0.0 mm
15:12 9.9 °C 4.1 °C 1014.8 hPa ENE 3.2 km/h 14.5 km/h 67 % 0.0 mm
15:17 9.9 °C 4.1 °C 1014.8 hPa SW 1.6 km/h 14.5 km/h 67 % 0.0 mm
15:22 9.9 °C 4.3 °C 1014.4 hPa West 3.2 km/h 14.5 km/h 68 % 0.0 mm
15:32 9.9 °C 4.3 °C 1014.4 hPa West 1.6 km/h 11.3 km/h 68 % 0.0 mm
15:37 9.9 °C 3.8 °C 1014.4 hPa WSW 1.6 km/h 11.3 km/h 66 % 0.0 mm
15:42 9.8 °C 3.5 °C 1014.4 hPa WSW 3.2 km/h 11.3 km/h 65 % 0.0 mm
15:47 9.7 °C 3.4 °C 1014.4 hPa SW 3.2 km/h 12.9 km/h 65 % 0.0 mm
15:52 9.7 °C 3.2 °C 1014.1 hPa WSW 3.2 km/h 12.9 km/h 64 % 0.0 mm
15:57 9.7 °C 3.7 °C 1014.1 hPa West 4.8 km/h 12.9 km/h 66 % 0.0 mm
16:02 9.8 °C 3.5 °C 1014.1 hPa SSE 3.2 km/h 12.9 km/h 65 % 0.0 mm
16:07 10.2 °C 4.1 °C 1013.8 hPa Calm   11.3 km/h 66 % 0.0 mm
16:12 10.4 °C 3.4 °C 1013.8 hPa SSW 8.0 km/h 11.3 km/h 62 % 0.0 mm
16:22 10.4 °C 3.4 °C 1013.8 hPa WSW 6.4 km/h 14.5 km/h 62 % 0.0 mm
16:27 10.2 °C 3.2 °C 1013.8 hPa SE 8.0 km/h 16.1 km/h 62 % 0.0 mm
16:37 10.2 °C 3.2 °C 1013.4 hPa SSW 14.5 km/h 16.1 km/h 62 % 0.0 mm
16:42 10.2 °C 3.5 °C 1013.4 hPa SW 3.2 km/h 16.1 km/h 63 % 0.0 mm
16:47 10.1 °C 3.8 °C 1013.4 hPa SW 3.2 km/h 14.5 km/h 65 % 0.0 mm
16:52 10.1 °C 3.1 °C 1013.1 hPa WSW 3.2 km/h 14.5 km/h 62 % 0.0 mm
16:57 10.0 °C 3.3 °C 1013.1 hPa WSW 3.2 km/h 9.7 km/h 63 % 0.0 mm
17:02 9.8 °C 2.9 °C 1013.1 hPa WSW 4.8 km/h 9.7 km/h 62 % 0.0 mm
17:07 9.7 °C 3.2 °C 1013.1 hPa Calm   9.7 km/h 64 % 0.0 mm
17:12 9.7 °C 3.0 °C 1013.1 hPa SW 1.6 km/h 9.7 km/h 63 % 0.0 mm
17:17 9.8 °C 2.9 °C 1013.1 hPa SW 3.2 km/h 16.1 km/h 62 % 0.0 mm
17:22 9.8 °C 3.3 °C 1013.1 hPa Calm   16.1 km/h 64 % 0.0 mm
17:27 9.8 °C 3.1 °C 1012.8 hPa SW 1.6 km/h 14.5 km/h 63 % 0.0 mm
17:32 9.8 °C 3.3 °C 1012.8 hPa SSW 4.8 km/h 14.5 km/h 64 % 0.0 mm
17:37 9.8 °C 3.1 °C 1012.8 hPa SW 1.6 km/h 12.9 km/h 63 % 0.0 mm
17:42 9.8 °C 3.1 °C 1012.8 hPa SW 4.8 km/h 12.9 km/h 63 % 0.0 mm
17:47 9.8 °C 3.5 °C 1012.8 hPa SW 3.2 km/h 14.5 km/h 65 % 0.0 mm
17:52 9.7 °C 3.0 °C 1012.8 hPa WSW 1.6 km/h 14.5 km/h 63 % 0.0 mm
17:57 9.7 °C 3.0 °C 1012.8 hPa WSW 3.2 km/h 11.3 km/h 63 % 0.0 mm
18:02 9.7 °C 3.2 °C 1012.8 hPa SW 3.2 km/h 11.3 km/h 64 % 0.0 mm
18:07 9.6 °C 3.3 °C 1012.4 hPa SW 1.6 km/h 8.0 km/h 65 % 0.0 mm
18:12 9.6 °C 3.6 °C 1012.4 hPa SW 3.2 km/h 8.0 km/h 66 % 0.0 mm
18:17 9.5 °C 3.2 °C 1012.4 hPa SW 3.2 km/h 8.0 km/h 65 % 0.0 mm
18:22 9.5 °C 3.2 °C 1012.4 hPa SW 3.2 km/h 8.0 km/h 65 % 0.0 mm
18:27 9.5 °C 3.0 °C 1012.1 hPa WSW 3.2 km/h 8.0 km/h 64 % 0.0 mm
18:32 9.6 °C 3.3 °C 1012.1 hPa West 1.6 km/h 11.3 km/h 65 % 0.0 mm
18:37 9.5 °C 3.0 °C 1012.1 hPa SW 1.6 km/h 11.3 km/h 64 % 0.0 mm
18:42 9.5 °C 3.5 °C 1012.1 hPa SSW 1.6 km/h 11.3 km/h 66 % 0.0 mm
18:47 9.5 °C 3.5 °C 1012.1 hPa Calm   8.0 km/h 66 % 0.0 mm
18:57 9.4 °C 3.4 °C 1011.7 hPa SW 3.2 km/h 8.0 km/h 66 % 0.0 mm
19:02 9.4 °C 3.8 °C 1011.7 hPa WSW 1.6 km/h 8.0 km/h 68 % 0.0 mm
19:07 9.4 °C 3.6 °C 1011.7 hPa SW 4.8 km/h 8.0 km/h 67 % 0.0 mm
19:17 9.4 °C 3.4 °C 1011.7 hPa WSW 4.8 km/h 8.0 km/h 66 % 0.0 mm
19:22 9.4 °C 3.6 °C 1011.7 hPa Calm   8.0 km/h 67 % 0.0 mm
19:27 9.3 °C 3.3 °C 1011.4 hPa WSW 6.4 km/h 6.4 km/h 66 % 0.0 mm
19:32 9.3 °C 2.8 °C 1011.7 hPa Calm   6.4 km/h 64 % 0.0 mm
19:37 9.3 °C 2.8 °C 1011.7 hPa WSW 1.6 km/h 9.7 km/h 64 % 0.0 mm
19:47 9.3 °C 2.8 °C 1011.4 hPa ENE 1.6 km/h 6.4 km/h 64 % 0.0 mm
19:52 9.2 °C 2.7 °C 1011.4 hPa Calm   6.4 km/h 64 % 0.0 mm
19:57 9.2 °C 2.5 °C 1011.4 hPa Calm   6.4 km/h 63 % 0.0 mm
20:02 9.1 °C 2.6 °C 1011.4 hPa Calm   6.4 km/h 64 % 0.0 mm
20:07 9.1 °C 2.6 °C 1011.4 hPa Calm   6.4 km/h 64 % 0.0 mm
20:12 9.1 °C 2.9 °C 1011.1 hPa SW 1.6 km/h 6.4 km/h 65 % 0.0 mm
20:17 9.1 °C 2.4 °C 1011.1 hPa South 4.8 km/h 14.5 km/h 63 % 0.0 mm
20:27 9.0 °C 2.3 °C 1010.7 hPa SW 4.8 km/h 14.5 km/h 63 % 0.0 mm
20:32 9.0 °C 2.6 °C 1011.1 hPa West 4.8 km/h 14.5 km/h 64 % 0.0 mm
20:37 9.0 °C 2.3 °C 1011.1 hPa ESE 4.8 km/h 11.3 km/h 63 % 0.0 mm
20:42 8.9 °C 2.5 °C 1011.1 hPa WSW 3.2 km/h 11.3 km/h 64 % 0.0 mm
20:47 8.9 °C 2.7 °C 1011.1 hPa WSW 1.6 km/h 9.7 km/h 65 % 0.0 mm
20:52 8.8 °C 2.6 °C 1011.1 hPa WSW 6.4 km/h 9.7 km/h 65 % 0.0 mm
20:57 8.8 °C 2.8 °C 1011.1 hPa SW 3.2 km/h 8.0 km/h 66 % 0.0 mm
21:02 8.8 °C 3.0 °C 1011.1 hPa SW 1.6 km/h 8.0 km/h 67 % 0.0 mm
21:07 8.7 °C 2.9 °C 1011.1 hPa SW 3.2 km/h 9.7 km/h 67 % 0.0 mm
21:12 8.7 °C 2.9 °C 1011.1 hPa WSW 8.0 km/h 9.7 km/h 67 % 0.0 mm
21:17 8.6 °C 3.0 °C 1011.1 hPa WSW 8.0 km/h 9.7 km/h 68 % 0.0 mm
21:22 8.6 °C 3.0 °C 1011.1 hPa SW 1.6 km/h 9.7 km/h 68 % 0.0 mm
21:27 8.6 °C 3.0 °C 1010.7 hPa WSW 4.8 km/h 9.7 km/h 68 % 0.0 mm
21:32 8.6 °C 3.0 °C 1010.4 hPa WSW 6.4 km/h 9.7 km/h 68 % 0.0 mm
21:37 8.6 °C 3.0 °C 1010.7 hPa WSW 4.8 km/h 19.3 km/h 68 % 0.0 mm
21:42 8.6 °C 3.2 °C 1011.1 hPa Calm   19.3 km/h 69 % 0.0 mm
21:47 8.5 °C 3.3 °C 1011.1 hPa Calm   14.5 km/h 70 % 0.0 mm
21:52 8.4 °C 3.2 °C 1011.1 hPa South 1.6 km/h 14.5 km/h 70 % 0.0 mm
22:02 8.3 °C 3.5 °C 1011.1 hPa SSE 4.8 km/h 9.7 km/h 72 % 0.0 mm
22:07 8.3 °C 3.5 °C 1011.1 hPa SW 1.6 km/h 14.5 km/h 72 % 0.0 mm
22:17 8.3 °C 3.5 °C 1010.7 hPa WSW 6.4 km/h 14.5 km/h 72 % 0.0 mm
22:22 8.3 °C 3.7 °C 1010.7 hPa SW 1.6 km/h 14.5 km/h 73 % 0.0 mm
22:27 8.2 °C 3.6 °C 1010.7 hPa WSW 1.6 km/h 11.3 km/h 73 % 0.0 mm
22:37 8.2 °C 3.6 °C 1010.7 hPa SW 3.2 km/h 8.0 km/h 73 % 0.0 mm
22:42 8.2 °C 3.8 °C 1010.7 hPa WSW 3.2 km/h 8.0 km/h 74 % 0.0 mm
22:47 8.1 °C 3.7 °C 1010.7 hPa SW 4.8 km/h 9.7 km/h 74 % 0.0 mm
22:52 8.1 °C 3.9 °C 1010.7 hPa SSW 1.6 km/h 9.7 km/h 75 % 0.0 mm
22:57 8.1 °C 3.9 °C 1010.7 hPa SW 4.8 km/h 6.4 km/h 75 % 0.0 mm
23:02 8.1 °C 3.9 °C 1010.7 hPa SSW 1.6 km/h 6.4 km/h 75 % 0.0 mm
23:07 8.1 °C 3.9 °C 1010.7 hPa Calm   12.9 km/h 75 % 0.0 mm
23:12 8.0 °C 4.0 °C 1010.7 hPa WSW 3.2 km/h 12.9 km/h 76 % 0.0 mm
23:17 7.9 °C 3.9 °C 1010.7 hPa Calm   9.7 km/h 76 % 0.0 mm
23:22 7.9 °C 3.9 °C 1010.7 hPa WSW 3.2 km/h 9.7 km/h 76 % 0.0 mm
23:27 7.9 °C 4.1 °C 1010.7 hPa SW 1.6 km/h 12.9 km/h 77 % 0.0 mm
23:32 7.9 °C 4.1 °C 1010.4 hPa SW 1.6 km/h 12.9 km/h 77 % 0.0 mm
23:37 7.8 °C 4.0 °C 1010.4 hPa SW 6.4 km/h 12.9 km/h 77 % 0.0 mm
23:42 7.8 °C 4.2 °C 1010.4 hPa SW 6.4 km/h 12.9 km/h 78 % 0.0 mm
23:47 7.8 °C 4.2 °C 1010.4 hPa Calm   14.5 km/h 78 % 0.0 mm
23:52 7.8 °C 4.4 °C 1010.4 hPa WSW 3.2 km/h 14.5 km/h 79 % 0.0 mm
23:57 7.8 °C 4.4 °C 1010.4 hPa Calm   11.3 km/h 79 % 0.0 mm
Meteo18
Compliments of Weather Underground - 4 mb

Script developed by  Jim McMurry - jmcmurry@mwt.net Adapted for the template by  Wim van der Kuil - Leuven-Template.eu

You find our weather info also at:

European Weather Network

Weather Underground

Equipment we use:

Weather-station
Davis Vue

Weather-program
Meteohub

Weather-server
Raspberry PI 2 B+

Provider
1 and 1

Davis Vue

Meteohub

Raspberry PI 2 B+

1 and 1